Time;durP1;ratioP1;P1;durP2;ratioP2;P2;SDS_P1;SDS_P2;PMS_P1;PMS_P2;Temp;Humidity;BMP_temperature;BMP_pressure;BME280_temperature;BME280_humidity;BME280_pressure;Samples;Min_cycle;Max_cycle;Signal;HPM_P1;HPM_P2
2021/10/30 00:01:40;;;;;;;13.77;9.57;;;;;;;8.13;71.66;98267.44;2619391;54;20034;-68
2021/10/30 00:04:12;;;;;;;14.48;9.52;;;;;;;8.01;71.29;98268.16;2619449;47;20080;-68
2021/10/30 00:06:42;;;;;;;16.20;10.43;;;;;;;7.87;71.23;98260.13;2618800;46;20066;-68
2021/10/30 00:09:12;;;;;;;14.10;10.77;;;;;;;7.78;72.16;98261.25;2618524;54;20073;-68
2021/10/30 00:11:41;;;;;;;13.68;10.18;;;;;;;7.82;72.28;98261.69;2618735;54;20022;-68
2021/10/30 00:14:11;;;;;;;15.30;9.80;;;;;;;7.79;72.16;98257.59;2619080;54;20034;-68
2021/10/30 00:16:41;;;;;;;14.40;9.60;;;;;;;7.75;71.88;98255.53;2619180;54;20043;-68
2021/10/30 00:19:13;;;;;;;18.55;11.20;;;;;;;7.73;72.37;98249.66;2617996;47;20474;-68
2021/10/30 00:21:43;;;;;;;14.55;9.65;;;;;;;7.64;72.49;98241.91;2618039;47;20059;-68
2021/10/30 00:24:13;;;;;;;13.20;9.55;;;;;;;7.72;72.74;98251.50;2617888;54;20046;-68
2021/10/30 00:26:42;;;;;;;15.30;10.05;;;;;;;7.76;71.97;98260.63;2618879;47;20034;-68
2021/10/30 00:29:12;;;;;;;14.00;10.45;;;;;;;7.68;71.81;98250.25;2618553;54;20027;-68
2021/10/30 00:31:42;;;;;;;12.80;9.20;;;;;;;7.60;72.09;98247.72;2618073;54;20027;-68
2021/10/30 00:34:14;;;;;;;12.15;9.77;;;;;;;7.62;72.31;98243.88;2618382;54;20039;-68
2021/10/30 00:36:44;;;;;;;15.98;10.15;;;;;;;7.64;72.55;98243.72;2618500;54;20061;-68
2021/10/30 00:39:14;;;;;;;11.68;8.60;;;;;;;7.68;72.18;98244.97;2618397;54;20030;-68
2021/10/30 00:41:47;;;;;;;11.55;8.63;;;;;;;7.61;72.15;98229.13;2617706;54;20026;-67
2021/10/30 00:44:18;;;;;;;11.77;9.02;;;;;;;7.64;71.95;98227.94;2618226;54;20069;-68
2021/10/30 00:46:50;;;;;;;13.02;9.88;;;;;;;7.56;71.80;98225.44;2618253;54;20034;-68
2021/10/30 00:49:24;;;;;;;14.07;8.85;;;;;;;7.57;72.56;98227.84;2617681;54;20043;-67
2021/10/30 00:51:56;;;;;;;12.02;9.30;;;;;;;7.62;71.95;98217.59;2618213;54;20125;-68
2021/10/30 00:54:28;;;;;;;10.48;7.78;;;;;;;7.60;71.79;98216.97;2618847;39;20434;-67
2021/10/30 00:56:59;;;;;;;13.75;8.88;;;;;;;7.60;72.09;98222.22;2618212;39;20443;-67
2021/10/30 00:59:28;;;;;;;10.45;7.70;;;;;;;7.60;71.83;98216.16;2617538;54;20100;-67
2021/10/30 01:01:58;;;;;;;12.82;8.05;;;;;;;7.59;71.29;98217.97;2618075;54;20048;-68
2021/10/30 01:04:32;;;;;;;9.13;7.68;;;;;;;7.61;71.60;98213.34;2618251;54;20045;-68
2021/10/30 01:07:03;;;;;;;10.15;7.18;;;;;;;7.57;71.54;98217.34;2618258;39;20351;-67
2021/10/30 01:09:33;;;;;;;9.65;7.50;;;;;;;7.56;71.65;98212.28;2617945;54;20577;-68
2021/10/30 01:12:04;;;;;;;16.83;9.38;;;;;;;7.47;71.64;98211.59;2617700;54;20033;-68
2021/10/30 01:14:34;;;;;;;9.80;8.18;;;;;;;7.46;71.51;98209.94;2617606;50;20049;-67
2021/10/30 01:17:07;;;;;;;11.77;9.30;;;;;;;7.40;71.67;98210.69;2618360;54;20035;-68
2021/10/30 01:19:40;;;;;;;14.40;8.23;;;;;;;7.35;71.90;98216.53;2618740;54;20037;-67
2021/10/30 01:22:12;;;;;;;14.68;8.77;;;;;;;7.39;72.22;98219.59;2620281;39;20425;-67
2021/10/30 01:24:42;;;;;;;12.02;8.63;;;;;;;7.34;71.55;98206.97;2618925;54;20034;-69
2021/10/30 01:27:11;;;;;;;13.45;8.65;;;;;;;7.29;71.73;98208.56;2619615;54;20030;-68
2021/10/30 01:29:41;;;;;;;10.25;7.85;;;;;;;7.32;72.01;98203.75;2618612;47;20030;-68
2021/10/30 01:32:11;;;;;;;12.20;8.15;;;;;;;7.32;71.78;98213.44;2619226;54;20072;-68
2021/10/30 01:34:41;;;;;;;10.68;7.82;;;;;;;7.24;71.79;98209.09;2618096;54;20039;-68
2021/10/30 01:37:13;;;;;;;12.20;8.63;;;;;;;7.15;71.66;98215.47;2617443;47;20035;-67
2021/10/30 01:39:43;;;;;;;11.52;8.30;;;;;;;7.12;72.02;98214.03;2618620;39;20434;-67
2021/10/30 01:42:13;;;;;;;10.80;8.95;;;;;;;6.97;71.88;98200.09;2617784;54;20082;-67
2021/10/30 01:44:43;;;;;;;14.95;8.63;;;;;;;6.76;72.38;98194.78;2618067;54;20042;-67
2021/10/30 01:47:13;;;;;;;14.88;8.80;;;;;;;6.67;72.94;98188.81;2617966;54;20155;-68
2021/10/30 01:49:43;;;;;;;10.73;8.90;;;;;;;6.66;72.98;98184.56;2618048;54;20034;-68
2021/10/30 01:52:16;;;;;;;10.15;8.55;;;;;;;6.78;73.58;98183.09;2617181;47;20054;-68
2021/10/30 01:54:45;;;;;;;14.70;8.30;;;;;;;6.87;73.69;98182.00;2618167;46;20054;-68
2021/10/30 01:57:15;;;;;;;11.10;8.30;;;;;;;6.95;73.17;98178.47;2618443;39;20671;-68
2021/10/30 01:59:45;;;;;;;10.82;8.18;;;;;;;6.90;73.07;98180.84;2617429;47;20544;-68
2021/10/30 02:02:14;;;;;;;12.65;9.07;;;;;;;6.91;73.12;98182.44;2617824;54;20033;-68
2021/10/30 02:04:44;;;;;;;11.65;8.68;;;;;;;6.87;73.29;98171.50;2618406;39;20424;-69
2021/10/30 02:07:16;;;;;;;12.68;9.38;;;;;;;6.86;73.04;98167.25;2617336;47;20046;-69
2021/10/30 02:09:46;;;;;;;13.75;8.95;;;;;;;6.78;73.34;98166.53;2617994;54;20038;-68
2021/10/30 02:12:16;;;;;;;11.32;7.50;;;;;;;6.81;73.56;98166.97;2617355;54;20034;-69
2021/10/30 02:14:45;;;;;;;11.88;7.90;;;;;;;6.90;72.89;98159.81;2617399;54;20041;-69
2021/10/30 02:17:15;;;;;;;12.15;7.97;;;;;;;6.83;73.03;98159.72;2618387;39;20422;-69
2021/10/30 02:19:45;;;;;;;10.18;7.30;;;;;;;6.75;72.98;98157.19;2617466;47;20027;-67
2021/10/30 02:22:17;;;;;;;10.73;8.07;;;;;;;6.81;73.34;98153.00;2617342;46;20038;-67
2021/10/30 02:24:47;;;;;;;10.52;7.93;;;;;;;6.78;73.23;98145.53;2617372;47;20030;-67
2021/10/30 02:27:17;;;;;;;11.30;8.38;;;;;;;6.86;73.22;98156.72;2617915;54;20031;-68
2021/10/30 02:29:46;;;;;;;12.50;8.15;;;;;;;6.77;73.11;98152.56;2618156;54;20038;-68
2021/10/30 02:32:16;;;;;;;9.93;7.85;;;;;;;6.77;73.54;98149.94;2617984;54;20039;-68
2021/10/30 02:34:46;;;;;;;15.65;7.90;;;;;;;6.82;73.57;98139.72;2618594;39;20422;-67
2021/10/30 02:37:18;;;;;;;9.68;7.13;;;;;;;6.83;73.11;98149.22;2618063;54;20027;-68
2021/10/30 02:39:48;;;;;;;10.10;7.45;;;;;;;6.84;73.46;98156.09;2617999;54;20031;-68
2021/10/30 02:42:17;;;;;;;10.13;7.45;;;;;;;6.77;73.17;98147.31;2618048;54;20073;-68
2021/10/30 02:44:47;;;;;;;10.73;7.47;;;;;;;6.74;72.90;98136.38;2622150;54;20026;-68
2021/10/30 02:47:17;;;;;;;10.50;7.60;;;;;;;6.74;73.38;98134.56;2623434;54;20553;-69
2021/10/30 02:49:47;;;;;;;10.18;7.35;;;;;;;6.79;73.20;98119.06;2621234;54;20577;-69
2021/10/30 02:52:19;;;;;;;11.38;7.88;;;;;;;6.82;73.17;98118.69;2622674;54;20039;-68
2021/10/30 02:54:51;;;;;;;9.10;7.50;;;;;;;6.89;73.43;98116.13;2622625;54;20031;-68
2021/10/30 02:57:21;;;;;;;9.93;7.40;;;;;;;6.90;73.02;98112.50;2623205;54;20042;-68
2021/10/30 02:59:54;;;;;;;10.35;6.95;;;;;;;6.93;72.82;98110.31;2623605;54;20070;-68
2021/10/30 03:02:23;;;;;;;9.63;7.53;;;;;;;6.85;72.79;98102.53;2623751;54;20065;-68
2021/10/30 03:04:53;;;;;;;11.25;7.53;;;;;;;6.83;72.90;98098.50;2623985;54;20041;-69
2021/10/30 03:07:26;;;;;;;8.38;7.40;;;;;;;6.78;73.22;98093.78;2623706;54;20030;-68
2021/10/30 03:09:55;;;;;;;8.63;7.15;;;;;;;6.81;72.88;98090.78;2624037;54;20034;-68
2021/10/30 03:12:25;;;;;;;9.15;7.35;;;;;;;6.75;72.67;98085.47;2624105;54;20564;-68
2021/10/30 03:14:55;;;;;;;10.40;8.15;;;;;;;6.63;72.56;98082.50;2623911;54;20030;-68
2021/10/30 03:17:25;;;;;;;11.77;7.82;;;;;;;6.51;72.89;98068.22;2623998;54;20030;-68
2021/10/30 03:19:54;;;;;;;13.20;9.45;;;;;;;6.33;73.93;98072.06;2624001;54;20034;-68
2021/10/30 03:22:27;;;;;;;9.65;7.68;;;;;;;6.28;73.71;98071.78;2623605;54;20043;-67
2021/10/30 03:24:56;;;;;;;10.75;7.95;;;;;;;6.34;73.99;98055.31;2623493;54;20578;-67
2021/10/30 03:27:27;;;;;;;11.68;8.25;;;;;;;6.45;74.54;98054.84;2623940;54;20034;-67
2021/10/30 03:29:58;;;;;;;9.60;7.45;;;;;;;6.58;73.71;98056.81;2624205;54;20577;-67
2021/10/30 03:32:27;;;;;;;9.10;6.88;;;;;;;6.64;73.79;98047.34;2623083;46;20022;-67
2021/10/30 03:34:58;;;;;;;8.95;7.72;;;;;;;6.73;73.82;98043.59;2622577;54;20044;-68
2021/10/30 03:37:32;;;;;;;9.48;7.40;;;;;;;6.68;73.56;98040.72;2618364;47;20027;-68
2021/10/30 03:40:02;;;;;;;12.13;7.57;;;;;;;6.59;73.79;98042.66;2618192;47;20030;-68
2021/10/30 03:42:32;;;;;;;9.20;7.25;;;;;;;6.65;73.35;98039.31;2618657;54;20030;-68
2021/10/30 03:45:03;;;;;;;11.07;7.72;;;;;;;6.64;73.44;98035.03;2618189;47;20039;-68
2021/10/30 03:47:32;;;;;;;12.65;7.50;;;;;;;6.71;73.68;98040.38;2618705;54;20574;-68
2021/10/30 03:50:03;;;;;;;11.75;7.18;;;;;;;6.84;72.59;98043.13;2619118;39;20445;-68
2021/10/30 03:52:35;;;;;;;12.00;7.07;;;;;;;6.73;72.88;98038.34;2618488;54;20038;-68
2021/10/30 03:55:05;;;;;;;9.32;7.55;;;;;;;6.64;73.10;98053.41;2619117;39;20434;-68
2021/10/30 03:57:35;;;;;;;10.50;6.90;;;;;;;6.51;73.39;98052.47;2618848;39;20539;-67
2021/10/30 04:00:07;;;;;;;10.73;7.55;;;;;;;6.44;73.83;98055.00;2618492;54;20553;-67
2021/10/30 04:02:43;;;;;;;9.52;7.20;;;;;;;6.36;74.15;98057.72;2618546;54;20082;-68
2021/10/30 04:05:14;;;;;;;12.57;7.93;;;;;;;6.29;74.14;98059.50;2618460;54;20045;-68
2021/10/30 04:07:46;;;;;;;9.18;7.30;;;;;;;6.28;74.16;98060.47;2619073;39;20454;-68
2021/10/30 04:10:16;;;;;;;7.63;6.80;;;;;;;6.32;74.73;98051.22;2620257;54;20022;-68
2021/10/30 04:12:45;;;;;;;8.05;7.25;;;;;;;6.33;74.83;98047.63;2620144;39;20414;-68
2021/10/30 04:15:15;;;;;;;13.90;7.20;;;;;;;6.36;74.21;98053.28;2619995;54;20034;-68
2021/10/30 04:17:45;;;;;;;9.30;7.80;;;;;;;6.40;74.58;98049.31;2620280;54;20038;-68
2021/10/30 04:20:14;;;;;;;10.63;8.02;;;;;;;6.46;74.27;98045.16;2619992;54;20023;-69
2021/10/30 04:22:46;;;;;;;12.05;8.20;;;;;;;6.56;74.46;98037.78;2619852;54;20034;-68
2021/10/30 04:25:17;;;;;;;10.95;8.13;;;;;;;6.61;74.13;98024.09;2620706;54;20026;-69
2021/10/30 04:27:47;;;;;;;12.32;7.72;;;;;;;6.53;74.30;98032.06;2620565;39;20430;-68
2021/10/30 04:30:16;;;;;;;10.93;7.63;;;;;;;6.63;74.36;98037.84;2619054;39;20445;-68
2021/10/30 04:32:46;;;;;;;10.38;7.53;;;;;;;6.68;74.51;98027.59;2617598;47;20065;-68
2021/10/30 04:35:16;;;;;;;9.82;7.78;;;;;;;6.69;74.75;98010.84;2617996;54;20053;-68
2021/10/30 04:37:48;;;;;;;10.30;7.85;;;;;;;6.69;74.61;98011.66;2618274;54;20037;-68
2021/10/30 04:40:18;;;;;;;11.50;7.65;;;;;;;6.72;74.54;98013.09;2617959;54;20038;-68
2021/10/30 04:42:48;;;;;;;13.48;7.75;;;;;;;6.62;74.38;98015.22;2618360;54;20551;-68
2021/10/30 04:45:18;;;;;;;10.02;7.90;;;;;;;6.61;74.38;98013.56;2618508;54;20030;-68
2021/10/30 04:47:48;;;;;;;11.43;7.97;;;;;;;6.70;74.71;98013.28;2618440;54;20037;-69
2021/10/30 04:50:18;;;;;;;11.05;7.88;;;;;;;6.76;74.07;98006.47;2618260;39;20442;-68
2021/10/30 04:52:50;;;;;;;10.95;7.57;;;;;;;6.77;74.14;98005.47;2618561;54;20041;-68
2021/10/30 04:55:20;;;;;;;9.02;7.28;;;;;;;6.83;74.14;98001.28;2617960;47;20045;-68
2021/10/30 04:57:50;;;;;;;10.43;7.78;;;;;;;6.85;73.72;97997.44;2619974;47;20030;-68
2021/10/30 05:00:20;;;;;;;12.35;8.27;;;;;;;6.84;74.25;97995.81;2621757;39;20489;-68
2021/10/30 05:02:50;;;;;;;8.75;7.70;;;;;;;6.89;74.22;97995.25;2622031;54;20033;-68
2021/10/30 05:05:19;;;;;;;14.40;7.60;;;;;;;6.80;74.14;97991.16;2621771;54;20027;-68
2021/10/30 05:07:52;;;;;;;10.02;8.30;;;;;;;6.72;74.11;97989.44;2623308;39;20426;-68
2021/10/30 05:10:22;;;;;;;8.40;7.40;;;;;;;6.69;74.51;97981.94;2622366;54;20026;-68
2021/10/30 05:12:52;;;;;;;8.82;7.20;;;;;;;6.70;74.46;97983.59;2622630;54;20030;-68
2021/10/30 05:15:21;;;;;;;12.50;7.55;;;;;;;6.84;74.67;97990.56;2622466;54;20037;-69
2021/10/30 05:17:51;;;;;;;8.45;6.80;;;;;;;6.88;74.27;97980.50;2623162;39;20450;-68
2021/10/30 05:20:21;;;;;;;10.48;7.38;;;;;;;6.89;73.81;97969.78;2622143;54;20041;-68
2021/10/30 05:22:53;;;;;;;11.10;8.13;;;;;;;6.93;73.80;97970.22;2622629;39;20533;-68
2021/10/30 05:25:23;;;;;;;9.95;8.30;;;;;;;6.87;73.79;97971.81;2622405;46;20054;-68
2021/10/30 05:27:53;;;;;;;9.52;7.75;;;;;;;6.99;73.85;97972.13;2622176;54;20053;-70
2021/10/30 05:30:22;;;;;;;10.80;7.10;;;;;;;7.06;74.08;97972.16;2619417;39;20120;-69
2021/10/30 05:32:52;;;;;;;9.82;8.82;;;;;;;7.13;73.57;97959.88;2618449;54;20077;-68
2021/10/30 05:35:42;;;;;;;12.85;8.38;;;;;;;6.95;73.10;97947.22;2618322;47;20061;-68
2021/10/30 05:38:29;;;;;;;10.65;7.78;;;;;;;6.84;73.53;97956.44;2617853;54;20073;-68
2021/10/30 05:40:58;;;;;;;11.07;7.90;;;;;;;6.85;73.95;97949.34;2617193;47;20022;-68
2021/10/30 05:43:29;;;;;;;9.70;7.40;;;;;;;6.93;74.12;97944.78;2618495;39;20411;-68
2021/10/30 05:45:59;;;;;;;9.80;8.23;;;;;;;7.02;73.96;97934.97;2617879;54;20030;-68
2021/10/30 05:48:30;;;;;;;15.02;8.10;;;;;;;7.05;73.96;97917.97;2617875;54;20070;-69
2021/10/30 05:50:59;;;;;;;8.88;6.97;;;;;;;7.06;73.87;97930.94;2617131;47;20034;-68
2021/10/30 05:53:32;;;;;;;10.13;7.72;;;;;;;7.17;74.26;97934.84;2617801;54;20058;-68
2021/10/30 05:56:02;;;;;;;10.35;8.07;;;;;;;7.27;73.91;97934.53;2617988;54;20053;-68
2021/10/30 05:58:31;;;;;;;8.93;8.02;;;;;;;7.24;73.67;97927.00;2618008;54;20030;-68
2021/10/30 06:01:01;;;;;;;7.72;6.93;;;;;;;7.11;73.26;97920.66;2617717;54;20041;-68
2021/10/30 06:03:32;;;;;;;10.40;7.90;;;;;;;6.97;73.71;97926.00;2617990;54;20125;-68
2021/10/30 06:06:02;;;;;;;9.93;7.78;;;;;;;6.95;74.26;97936.72;2618020;54;20053;-68
2021/10/30 06:08:34;;;;;;;11.27;8.63;;;;;;;6.92;74.33;97944.97;2617927;54;20030;-69
2021/10/30 06:11:04;;;;;;;13.75;8.00;;;;;;;6.87;74.21;97945.53;2617351;39;20430;-68
2021/10/30 06:13:34;;;;;;;10.15;8.40;;;;;;;6.87;74.15;97942.91;2618051;54;20661;-68
2021/10/30 06:16:03;;;;;;;10.48;8.15;;;;;;;6.92;74.30;97952.84;2618050;54;20031;-69
2021/10/30 06:18:33;;;;;;;11.10;9.38;;;;;;;6.96;74.10;97954.09;2617898;54;20030;-69
2021/10/30 06:21:03;;;;;;;13.55;8.43;;;;;;;6.96;74.45;97956.72;2617783;54;20065;-68
2021/10/30 06:23:36;;;;;;;11.63;7.93;;;;;;;6.99;74.10;97950.28;2617345;54;20042;-68
2021/10/30 06:26:06;;;;;;;11.60;9.03;;;;;;;7.04;74.15;97945.28;2618433;39;20426;-68
2021/10/30 06:28:37;;;;;;;14.27;9.02;;;;;;;7.14;74.36;97956.25;2618346;39;20407;-68
2021/10/30 06:31:06;;;;;;;10.32;8.00;;;;;;;7.17;74.14;97951.41;2617123;54;20538;-68
2021/10/30 06:33:36;;;;;;;11.82;9.98;;;;;;;7.22;74.31;97950.03;2617854;39;20414;-68
2021/10/30 06:36:06;;;;;;;12.88;10.10;;;;;;;7.24;74.58;97948.03;2617477;47;20027;-68
2021/10/30 06:38:38;;;;;;;16.80;11.00;;;;;;;7.20;74.09;97956.31;2623041;54;20027;-68
2021/10/30 06:41:11;;;;;;;38.50;23.05;;;;;;;7.18;74.11;97954.84;2622933;54;20031;-71
2021/10/30 06:44:01;;;;;;;22.70;14.95;;;;;;;7.09;74.29;97956.00;2624069;54;20031;-70
2021/10/30 06:46:31;;;;;;;19.40;13.13;;;;;;;7.12;74.32;97953.00;2624172;39;20465;-71
2021/10/30 06:49:02;;;;;;;15.43;10.63;;;;;;;7.11;74.73;97948.75;2624136;54;20064;-72
2021/10/30 06:51:31;;;;;;;18.52;10.68;;;;;;;7.08;74.66;97955.19;2622327;54;20042;-72
2021/10/30 06:54:03;;;;;;;16.30;10.90;;;;;;;7.02;74.96;97955.97;2622628;51;20569;-71
2021/10/30 06:56:35;;;;;;;15.88;11.23;;;;;;;7.02;75.46;97963.03;2621146;54;20038;-72
2021/10/30 06:59:05;;;;;;;13.27;9.57;;;;;;;6.97;75.49;97975.94;2622198;54;20018;-71
2021/10/30 07:01:36;;;;;;;12.70;9.40;;;;;;;6.92;75.65;97976.50;2622355;54;20023;-72
2021/10/30 07:04:07;;;;;;;10.52;8.82;;;;;;;6.94;75.57;97982.41;2623359;54;20086;-72
2021/10/30 07:06:37;;;;;;;10.82;8.48;;;;;;;7.01;75.50;97977.97;2624495;54;20030;-73
2021/10/30 07:09:09;;;;;;;11.55;8.90;;;;;;;7.09;75.39;97985.72;2624665;54;20031;-73
2021/10/30 07:11:44;;;;;;;18.00;12.32;;;;;;;7.13;75.49;97986.16;2624162;47;20027;-73
2021/10/30 07:14:13;;;;;;;14.40;10.98;;;;;;;7.13;75.48;97997.50;2624341;54;20030;-73
2021/10/30 07:16:43;;;;;;;10.77;9.25;;;;;;;7.16;75.50;98002.38;2620954;54;20537;-73
2021/10/30 07:19:13;;;;;;;15.70;10.93;;;;;;;7.19;75.49;98006.44;2620293;54;20545;-73
2021/10/30 07:21:42;;;;;;;13.13;10.98;;;;;;;7.17;75.95;98016.31;2620299;54;20035;-73
2021/10/30 07:24:14;;;;;;;15.68;10.75;;;;;;;7.17;75.82;98022.41;2620305;54;20679;-73
2021/10/30 07:26:44;;;;;;;15.63;10.20;;;;;;;7.22;76.01;98024.44;2620527;54;20030;-71
2021/10/30 07:29:14;;;;;;;13.80;9.68;;;;;;;7.25;75.92;98021.44;2624774;54;20030;-72
2021/10/30 07:31:43;;;;;;;10.85;9.07;;;;;;;7.28;75.84;98025.53;2625016;47;20030;-72
2021/10/30 07:34:13;;;;;;;13.23;10.30;;;;;;;7.34;76.01;98027.38;2626562;54;20106;-72
2021/10/30 07:36:43;;;;;;;11.88;10.15;;;;;;;7.38;75.37;98033.88;2627051;54;20026;-72
2021/10/30 07:39:16;;;;;;;12.05;9.65;;;;;;;7.37;75.64;98034.88;2626432;54;20660;-71
2021/10/30 07:41:45;;;;;;;10.98;9.05;;;;;;;7.44;75.69;98025.25;2625090;54;20026;-71
2021/10/30 07:44:15;;;;;;;11.35;9.80;;;;;;;7.48;75.68;98037.00;2625161;47;20031;-71
2021/10/30 07:46:45;;;;;;;15.23;9.73;;;;;;;7.48;75.59;98042.25;2625513;54;20034;-68
2021/10/30 07:49:15;;;;;;;12.38;8.80;;;;;;;7.56;75.49;98038.69;2623160;47;20026;-70
2021/10/30 07:51:44;;;;;;;10.90;9.02;;;;;;;7.61;75.66;98044.97;2621024;54;20038;-70
2021/10/30 07:54:17;;;;;;;10.10;9.02;;;;;;;7.63;75.12;98047.41;2622369;54;20057;-70
2021/10/30 07:56:46;;;;;;;13.18;9.88;;;;;;;7.62;74.93;98043.97;2624832;54;20074;-70
2021/10/30 07:59:16;;;;;;;12.20;9.48;;;;;;;7.62;75.35;98038.72;2625335;54;20035;-73
2021/10/30 08:01:46;;;;;;;12.82;8.48;;;;;;;7.65;75.27;98035.69;2624526;47;20030;-73
2021/10/30 08:04:16;;;;;;;12.10;9.73;;;;;;;7.63;74.97;98023.72;2624903;54;20526;-72
2021/10/30 08:06:46;;;;;;;12.80;10.27;;;;;;;7.62;75.73;98030.00;2625233;54;20030;-72
2021/10/30 08:09:18;;;;;;;12.88;9.40;;;;;;;7.76;75.54;98023.84;2624602;54;20035;-73
2021/10/30 08:11:48;;;;;;;21.08;16.25;;;;;;;7.79;75.16;98010.28;2623554;47;20031;-72
2021/10/30 08:14:18;;;;;;;12.20;9.90;;;;;;;7.73;75.06;98010.25;2621990;47;20038;-73
2021/10/30 08:16:47;;;;;;;10.88;9.40;;;;;;;7.76;75.47;98007.25;2625231;54;20057;-72
2021/10/30 08:19:17;;;;;;;11.93;10.18;;;;;;;7.75;75.65;98006.41;2623943;47;20034;-72
2021/10/30 08:21:47;;;;;;;13.25;10.70;;;;;;;7.79;75.58;97999.75;2624112;54;20030;-72
2021/10/30 08:24:19;;;;;;;12.27;10.32;;;;;;;7.80;76.01;98000.59;2623897;54;20092;-73
2021/10/30 08:26:49;;;;;;;12.10;10.27;;;;;;;7.87;75.49;97993.53;2622473;47;20035;-72
2021/10/30 08:29:19;;;;;;;13.15;11.57;;;;;;;7.86;75.63;97986.63;2623311;54;20035;-72
2021/10/30 08:31:49;;;;;;;12.57;10.55;;;;;;;7.98;75.65;97994.78;2623448;54;20063;-72
2021/10/30 08:34:19;;;;;;;22.85;16.15;;;;;;;8.16;75.44;97982.75;2624019;39;20438;-72
2021/10/30 08:36:48;;;;;;;14.35;11.07;;;;;;;8.23;75.59;97995.09;2623228;54;20034;-73
2021/10/30 08:39:21;;;;;;;12.75;10.93;;;;;;;8.33;75.38;97998.19;2622898;47;20042;-71
2021/10/30 08:41:50;;;;;;;12.30;10.65;;;;;;;8.33;74.56;97993.72;2621726;47;20045;-72
2021/10/30 08:44:22;;;;;;;13.65;11.52;;;;;;;8.34;75.01;98007.69;2623038;54;20030;-72
2021/10/30 08:46:53;;;;;;;12.23;10.65;;;;;;;8.30;74.58;97990.69;2623209;54;20041;-71
2021/10/30 08:49:23;;;;;;;12.32;10.55;;;;;;;8.30;74.99;97996.75;2623936;54;20046;-72
2021/10/30 08:51:53;;;;;;;13.45;11.68;;;;;;;8.35;75.17;97989.06;2623277;54;20078;-74
2021/10/30 08:54:25;;;;;;;14.45;10.85;;;;;;;8.33;74.96;97993.72;2621843;54;20050;-72
2021/10/30 08:56:55;;;;;;;13.30;11.55;;;;;;;8.32;74.82;97980.75;2621893;54;20046;-73
2021/10/30 08:59:39;;;;;;;14.05;11.73;;;;;;;8.34;75.36;97997.16;2621419;54;20026;-73
2021/10/30 09:02:11;;;;;;;12.48;11.05;;;;;;;8.40;75.04;97984.03;2625534;51;20534;-73
2021/10/30 09:04:40;;;;;;;13.77;10.40;;;;;;;8.38;75.31;97996.59;2623790;54;20018;-72
2021/10/30 09:07:14;;;;;;;12.55;10.35;;;;;;;8.35;74.96;97989.06;2625134;54;20023;-71
2021/10/30 09:09:47;;;;;;;15.23;12.05;;;;;;;8.35;74.92;97994.31;2624768;54;20026;-72
2021/10/30 09:12:25;;;;;;;11.93;10.38;;;;;;;8.32;74.99;97970.22;2624628;54;20035;-73
2021/10/30 09:14:55;;;;;;;15.32;10.43;;;;;;;8.01;75.79;97971.53;2624353;46;20031;-74
2021/10/30 09:17:25;;;;;;;14.07;10.32;;;;;;;8.16;76.27;97974.00;2625111;54;20026;-73
2021/10/30 09:19:57;;;;;;;13.93;11.00;;;;;;;8.25;75.90;97972.03;2625531;54;20026;-73
2021/10/30 09:22:27;;;;;;;16.13;10.55;;;;;;;8.35;75.63;97961.91;2624196;47;20038;-72
2021/10/30 09:25:06;;;;;;;14.77;10.45;;;;;;;8.29;75.88;97974.06;2624178;54;20026;-73
2021/10/30 09:27:53;;;;;;;23.63;17.65;;;;;;;8.43;76.42;97965.22;2625003;39;20454;-72
2021/10/30 09:30:26;;;;;;;13.25;10.88;;;;;;;8.42;76.23;97970.69;2624972;54;20026;-72
2021/10/30 09:32:58;;;;;;;20.63;15.27;;;;;;;8.42;75.58;97958.31;2624214;54;20030;-72
2021/10/30 09:35:35;;;;;;;17.00;13.38;;;;;;;8.35;75.98;97949.56;2623498;54;20049;-72
2021/10/30 09:38:05;;;;;;;20.27;14.05;;;;;;;8.30;76.67;97941.44;2624722;47;20038;-71
2021/10/30 09:40:37;;;;;;;18.60;13.95;;;;;;;8.25;76.84;97941.25;2624541;54;20042;-70
2021/10/30 09:43:14;;;;;;;21.75;15.63;;;;;;;8.19;77.09;97942.81;2624298;54;20057;-70
2021/10/30 09:45:46;;;;;;;21.52;14.23;;;;;;;8.19;76.85;97940.19;2624348;54;20041;-70
2021/10/30 09:48:21;;;;;;;23.60;14.02;;;;;;;8.23;77.55;97939.81;2624206;54;20034;-70
2021/10/30 09:50:52;;;;;;;17.15;12.18;;;;;;;8.31;77.46;97942.25;2623233;54;20614;-71
2021/10/30 09:53:33;;;;;;;16.98;11.77;;;;;;;8.42;77.21;97955.69;2622394;54;20037;-72
2021/10/30 09:56:08;;;;;;;15.07;11.70;;;;;;;8.50;76.69;97943.34;2622455;54;20038;-73
2021/10/30 09:58:40;;;;;;;13.43;12.00;;;;;;;8.56;76.67;97942.53;2621802;51;20023;-73
2021/10/30 10:01:14;;;;;;;16.33;12.73;;;;;;;8.56;76.63;97945.16;2622721;54;20041;-73
2021/10/30 10:03:45;;;;;;;14.55;11.65;;;;;;;8.56;76.97;97943.34;2622075;54;20168;-72
2021/10/30 10:06:17;;;;;;;12.43;10.52;;;;;;;8.66;77.10;97945.59;2622775;54;20034;-72
2021/10/30 10:08:49;;;;;;;16.20;12.73;;;;;;;8.79;76.76;97936.91;2623308;54;20042;-71
2021/10/30 10:11:23;;;;;;;17.85;11.88;;;;;;;8.80;77.01;97941.16;2621994;54;20072;-71
2021/10/30 10:13:53;;;;;;;27.55;20.23;;;;;;;8.78;76.45;97957.19;2622673;54;20034;-72
2021/10/30 10:16:24;;;;;;;18.75;15.23;;;;;;;8.75;77.29;97949.66;2623832;39;20701;-73
2021/10/30 10:18:55;;;;;;;15.55;12.38;;;;;;;8.78;77.43;97954.53;2623566;47;20538;-73
2021/10/30 10:21:26;;;;;;;15.98;13.45;;;;;;;8.88;77.29;97947.03;2623309;54;20030;-73
2021/10/30 10:23:58;;;;;;;18.73;13.68;;;;;;;8.87;77.07;97948.03;2622811;54;20038;-74
2021/10/30 10:26:35;;;;;;;17.35;12.60;;;;;;;8.85;76.78;97949.25;2623352;54;20043;-73
2021/10/30 10:29:06;;;;;;;16.50;12.63;;;;;;;8.85;77.07;97965.06;2624053;39;20593;-73
2021/10/30 10:31:36;;;;;;;12.88;11.27;;;;;;;8.83;77.20;97961.84;2622876;54;20041;-73
2021/10/30 10:34:14;;;;;;;14.35;11.38;;;;;;;8.85;77.67;97972.97;2623639;54;20042;-73
2021/10/30 10:36:46;;;;;;;15.65;11.65;;;;;;;8.93;77.26;97964.88;2624858;54;20154;-73
2021/10/30 10:39:21;;;;;;;14.20;11.40;;;;;;;8.92;76.98;97958.78;2626024;54;20038;-74
2021/10/30 10:41:59;;;;;;;12.52;10.27;;;;;;;8.92;77.26;97953.53;2625505;46;20048;-71
2021/10/30 10:45:10;;;;;;;15.27;12.63;;;;;;;8.96;77.45;97951.28;2625485;54;20034;-73
2021/10/30 10:48:01;;;;;;;13.80;11.55;;;;;;;8.95;77.76;97957.59;2626531;54;20039;-72
2021/10/30 10:50:54;;;;;;;14.52;11.25;;;;;;;9.01;78.27;97953.31;2625875;54;20042;-73
2021/10/30 10:53:30;;;;;;;15.73;12.30;;;;;;;9.02;78.27;97945.22;2624919;54;20574;-72
2021/10/30 10:56:08;;;;;;;14.20;11.65;;;;;;;9.04;78.21;97937.09;2625258;54;20085;-72
2021/10/30 10:59:13;;;;;;;20.33;12.45;;;;;;;9.06;78.30;97921.88;2626282;54;20053;-71
2021/10/30 11:02:20;;;;;;;20.42;14.65;;;;;;;9.11;78.53;97915.00;2626092;51;20553;-72
2021/10/30 11:05:23;;;;;;;15.77;13.48;;;;;;;9.17;78.86;97932.63;2626142;54;20111;-72
2021/10/30 11:08:34;;;;;;;16.98;12.68;;;;;;;9.18;78.59;97910.53;2622475;54;20144;-72
2021/10/30 11:11:16;;;;;;;17.25;11.10;;;;;;;9.15;79.16;97933.84;2623743;46;20030;-72
2021/10/30 11:14:02;;;;;;;19.40;15.10;;;;;;;9.29;79.54;97918.81;2623570;54;20023;-72
2021/10/30 11:16:40;;;;;;;13.15;11.18;;;;;;;9.37;78.92;97915.97;2622187;47;20045;-74
2021/10/30 11:19:33;;;;;;;18.95;12.02;;;;;;;9.36;79.07;97906.44;2623172;54;20573;-73
2021/10/30 11:22:12;;;;;;;15.90;11.23;;;;;;;9.39;79.12;97919.22;2622863;46;20065;-72
2021/10/30 11:24:53;;;;;;;13.27;11.00;;;;;;;9.42;79.75;97909.03;2622484;54;20031;-72
2021/10/30 11:27:24;;;;;;;14.02;11.20;;;;;;;9.51;79.61;97919.38;2622993;54;20035;-72
2021/10/30 11:29:55;;;;;;;12.20;10.35;;;;;;;9.50;78.89;97925.66;2622080;47;20026;-72
2021/10/30 11:32:25;;;;;;;16.23;11.43;;;;;;;9.51;79.02;97928.13;2621096;54;20058;-73
2021/10/30 11:35:00;;;;;;;15.40;12.00;;;;;;;9.56;79.29;97936.22;2621476;54;20041;-72
2021/10/30 11:37:40;;;;;;;12.27;9.95;;;;;;;9.58;79.34;97928.06;2621326;54;20558;-72
2021/10/30 11:40:11;;;;;;;13.82;11.05;;;;;;;9.64;78.92;97927.25;2621414;54;20042;-73
2021/10/30 11:42:44;;;;;;;16.90;12.23;;;;;;;9.65;79.11;97928.88;2621491;47;20030;-72
2021/10/30 11:45:13;;;;;;;15.73;12.02;;;;;;;9.64;79.17;97920.16;2617926;54;20031;-72
2021/10/30 11:47:43;;;;;;;14.73;12.50;;;;;;;9.63;79.04;97918.53;2619204;54;20031;-72
2021/10/30 11:50:15;;;;;;;18.27;13.35;;;;;;;9.66;79.51;97917.28;2620744;54;20037;-73
2021/10/30 11:52:50;;;;;;;15.10;12.48;;;;;;;9.60;79.16;97911.03;2620334;54;20031;-72
2021/10/30 11:55:24;;;;;;;17.35;13.25;;;;;;;9.56;79.69;97903.75;2620386;54;20038;-73